sensor_id;sensor_type;location;lat;lon;timestamp;temperature;humidity
3792;DHT22;1911;53.768;11.474;2023-02-07T00:00:16;-1.00;99.90
3792;DHT22;1911;53.768;11.474;2023-02-07T00:03:08;-1.00;99.90
3792;DHT22;1911;53.768;11.474;2023-02-07T00:06:02;-1.10;99.90
3792;DHT22;1911;53.768;11.474;2023-02-07T00:08:32;-1.10;99.90
3792;DHT22;1911;53.768;11.474;2023-02-07T00:11:20;-1.10;99.90
3792;DHT22;1911;53.768;11.474;2023-02-07T00:13:57;-1.10;99.90
3792;DHT22;1911;53.768;11.474;2023-02-07T00:16:24;-1.00;99.90
3792;DHT22;1911;53.768;11.474;2023-02-07T00:18:56;-1.10;99.90
3792;DHT22;1911;53.768;11.474;2023-02-07T00:21:40;-1.10;99.90
3792;DHT22;1911;53.768;11.474;2023-02-07T00:24:08;-1.10;99.90
3792;DHT22;1911;53.768;11.474;2023-02-07T00:26:34;-1.10;99.90
3792;DHT22;1911;53.768;11.474;2023-02-07T00:29:00;-1.20;99.90
3792;DHT22;1911;53.768;11.474;2023-02-07T00:31:29;-1.10;99.90
3792;DHT22;1911;53.768;11.474;2023-02-07T00:34:03;-1.20;99.90
3792;DHT22;1911;53.768;11.474;2023-02-07T00:36:38;-1.10;99.90
3792;DHT22;1911;53.768;11.474;2023-02-07T00:39:11;-1.20;99.90
3792;DHT22;1911;53.768;11.474;2023-02-07T00:41:37;-1.20;99.90
3792;DHT22;1911;53.768;11.474;2023-02-07T00:44:04;-1.20;99.90
3792;DHT22;1911;53.768;11.474;2023-02-07T00:46:30;-1.30;99.90
3792;DHT22;1911;53.768;11.474;2023-02-07T00:48:58;-1.30;99.90
3792;DHT22;1911;53.768;11.474;2023-02-07T00:51:32;-1.30;99.90
3792;DHT22;1911;53.768;11.474;2023-02-07T00:53:59;-1.30;99.90
3792;DHT22;1911;53.768;11.474;2023-02-07T00:56:27;-1.20;99.90
3792;DHT22;1911;53.768;11.474;2023-02-07T00:58:54;-1.20;99.90
3792;DHT22;1911;53.768;11.474;2023-02-07T01:01:23;-1.30;99.90
3792;DHT22;1911;53.768;11.474;2023-02-07T01:03:52;-1.40;99.90
3792;DHT22;1911;53.768;11.474;2023-02-07T01:06:18;-1.30;99.90
3792;DHT22;1911;53.768;11.474;2023-02-07T01:08:44;-1.20;99.90
3792;DHT22;1911;53.768;11.474;2023-02-07T01:11:15;-1.20;99.90
3792;DHT22;1911;53.768;11.474;2023-02-07T01:13:43;-1.30;99.90
3792;DHT22;1911;53.768;11.474;2023-02-07T01:16:36;-1.20;99.90
3792;DHT22;1911;53.768;11.474;2023-02-07T01:19:09;-1.20;99.90
3792;DHT22;1911;53.768;11.474;2023-02-07T01:21:38;-1.20;99.90
3792;DHT22;1911;53.768;11.474;2023-02-07T01:24:07;-1.20;99.90
3792;DHT22;1911;53.768;11.474;2023-02-07T01:26:41;-1.20;99.90
3792;DHT22;1911;53.768;11.474;2023-02-07T01:29:07;-1.30;99.90
3792;DHT22;1911;53.768;11.474;2023-02-07T01:31:34;-1.30;99.90
3792;DHT22;1911;53.768;11.474;2023-02-07T01:34:09;-1.30;99.90
3792;DHT22;1911;53.768;11.474;2023-02-07T01:36:39;-1.30;99.90
3792;DHT22;1911;53.768;11.474;2023-02-07T01:39:04;-1.30;99.90
3792;DHT22;1911;53.768;11.474;2023-02-07T01:41:30;-1.40;99.90
3792;DHT22;1911;53.768;11.474;2023-02-07T01:46:21;-1.30;99.90
3792;DHT22;1911;53.768;11.474;2023-02-07T01:48:47;-1.30;99.90
3792;DHT22;1911;53.768;11.474;2023-02-07T01:51:13;-1.40;99.90
3792;DHT22;1911;53.768;11.474;2023-02-07T01:53:40;-1.30;99.90
3792;DHT22;1911;53.768;11.474;2023-02-07T01:56:10;-1.40;99.90
3792;DHT22;1911;53.768;11.474;2023-02-07T01:58:38;-1.40;99.90
3792;DHT22;1911;53.768;11.474;2023-02-07T02:01:09;-1.40;99.90
3792;DHT22;1911;53.768;11.474;2023-02-07T02:03:40;-1.40;99.90
3792;DHT22;1911;53.768;11.474;2023-02-07T02:06:07;-1.40;99.90
3792;DHT22;1911;53.768;11.474;2023-02-07T02:08:34;-1.40;99.90
3792;DHT22;1911;53.768;11.474;2023-02-07T02:11:20;-1.40;99.90
3792;DHT22;1911;53.768;11.474;2023-02-07T02:13:57;-1.40;99.90
3792;DHT22;1911;53.768;11.474;2023-02-07T02:16:40;-1.40;99.90
3792;DHT22;1911;53.768;11.474;2023-02-07T02:22:25;-1.50;99.90
3792;DHT22;1911;53.768;11.474;2023-02-07T02:27:59;-1.50;99.90
3792;DHT22;1911;53.768;11.474;2023-02-07T02:30:32;-1.60;99.90
3792;DHT22;1911;53.768;11.474;2023-02-07T02:36:18;-1.60;99.90
3792;DHT22;1911;53.768;11.474;2023-02-07T02:39:07;-1.50;99.90
3792;DHT22;1911;53.768;11.474;2023-02-07T02:41:38;-1.50;99.90
3792;DHT22;1911;53.768;11.474;2023-02-07T02:44:17;-1.50;99.90
3792;DHT22;1911;53.768;11.474;2023-02-07T02:46:46;-1.50;99.90
3792;DHT22;1911;53.768;11.474;2023-02-07T02:49:14;-1.60;99.90
3792;DHT22;1911;53.768;11.474;2023-02-07T02:51:40;-1.60;99.90
3792;DHT22;1911;53.768;11.474;2023-02-07T02:54:34;-1.60;99.90
3792;DHT22;1911;53.768;11.474;2023-02-07T03:03:15;-1.70;99.90
3792;DHT22;1911;53.768;11.474;2023-02-07T03:05:59;-1.70;99.90
3792;DHT22;1911;53.768;11.474;2023-02-07T03:11:17;-1.70;99.90
3792;DHT22;1911;53.768;11.474;2023-02-07T03:13:54;-1.80;99.90
3792;DHT22;1911;53.768;11.474;2023-02-07T03:16:35;-1.70;99.90
3792;DHT22;1911;53.768;11.474;2023-02-07T03:19:26;-1.80;99.90
3792;DHT22;1911;53.768;11.474;2023-02-07T03:21:58;-1.70;99.90
3792;DHT22;1911;53.768;11.474;2023-02-07T03:24:30;-1.70;99.90
3792;DHT22;1911;53.768;11.474;2023-02-07T03:26:58;-1.70;99.90
3792;DHT22;1911;53.768;11.474;2023-02-07T03:29:28;-1.70;99.90
3792;DHT22;1911;53.768;11.474;2023-02-07T03:31:56;-1.70;99.90
3792;DHT22;1911;53.768;11.474;2023-02-07T03:34:37;-1.70;99.90
3792;DHT22;1911;53.768;11.474;2023-02-07T03:37:11;-1.60;99.90
3792;DHT22;1911;53.768;11.474;2023-02-07T03:39:38;-1.60;99.90
3792;DHT22;1911;53.768;11.474;2023-02-07T03:42:14;-1.60;99.90
3792;DHT22;1911;53.768;11.474;2023-02-07T03:44:41;-1.60;99.90
3792;DHT22;1911;53.768;11.474;2023-02-07T03:47:07;-1.60;99.90
3792;DHT22;1911;53.768;11.474;2023-02-07T03:49:33;-1.60;99.90
3792;DHT22;1911;53.768;11.474;2023-02-07T03:51:59;-1.60;99.90
3792;DHT22;1911;53.768;11.474;2023-02-07T03:54:25;-1.60;99.90
3792;DHT22;1911;53.768;11.474;2023-02-07T03:56:50;-1.70;99.90
3792;DHT22;1911;53.768;11.474;2023-02-07T03:59:16;-1.70;99.90
3792;DHT22;1911;53.768;11.474;2023-02-07T04:01:41;-1.70;99.90
3792;DHT22;1911;53.768;11.474;2023-02-07T04:04:11;-1.70;99.90
3792;DHT22;1911;53.768;11.474;2023-02-07T04:06:37;-1.60;99.90
3792;DHT22;1911;53.768;11.474;2023-02-07T04:09:03;-1.70;99.90
3792;DHT22;1911;53.768;11.474;2023-02-07T04:11:28;-1.70;99.90
3792;DHT22;1911;53.768;11.474;2023-02-07T04:13:54;-1.70;99.90
3792;DHT22;1911;53.768;11.474;2023-02-07T04:16:20;-1.80;99.90
3792;DHT22;1911;53.768;11.474;2023-02-07T04:18:45;-1.70;99.90
3792;DHT22;1911;53.768;11.474;2023-02-07T04:21:11;-1.80;99.90
3792;DHT22;1911;53.768;11.474;2023-02-07T04:23:36;-1.80;99.90
3792;DHT22;1911;53.768;11.474;2023-02-07T04:26:02;-1.70;99.90
3792;DHT22;1911;53.768;11.474;2023-02-07T04:28:28;-1.80;99.90
3792;DHT22;1911;53.768;11.474;2023-02-07T04:30:54;-1.70;99.90
3792;DHT22;1911;53.768;11.474;2023-02-07T04:33:21;-1.70;99.90
3792;DHT22;1911;53.768;11.474;2023-02-07T04:35:57;-1.70;99.90
3792;DHT22;1911;53.768;11.474;2023-02-07T04:38:24;-1.70;99.90
3792;DHT22;1911;53.768;11.474;2023-02-07T04:40:50;-1.70;99.90
3792;DHT22;1911;53.768;11.474;2023-02-07T04:43:16;-1.60;99.90
3792;DHT22;1911;53.768;11.474;2023-02-07T04:45:41;-1.70;99.90
3792;DHT22;1911;53.768;11.474;2023-02-07T04:48:07;-1.60;99.90
3792;DHT22;1911;53.768;11.474;2023-02-07T04:50:32;-1.70;99.90
3792;DHT22;1911;53.768;11.474;2023-02-07T04:52:58;-1.60;99.90
3792;DHT22;1911;53.768;11.474;2023-02-07T04:55:24;-1.60;99.90
3792;DHT22;1911;53.768;11.474;2023-02-07T04:57:49;-1.50;99.90
3792;DHT22;1911;53.768;11.474;2023-02-07T05:00:15;-1.60;99.90
3792;DHT22;1911;53.768;11.474;2023-02-07T05:02:42;-1.60;99.90
3792;DHT22;1911;53.768;11.474;2023-02-07T05:05:08;-1.60;99.90
3792;DHT22;1911;53.768;11.474;2023-02-07T05:07:34;-1.60;99.90
3792;DHT22;1911;53.768;11.474;2023-02-07T05:10:03;-1.60;99.90
3792;DHT22;1911;53.768;11.474;2023-02-07T05:12:28;-1.70;99.90
3792;DHT22;1911;53.768;11.474;2023-02-07T05:14:54;-1.70;99.90
3792;DHT22;1911;53.768;11.474;2023-02-07T05:17:20;-1.90;99.90
3792;DHT22;1911;53.768;11.474;2023-02-07T05:19:45;-2.00;99.90
3792;DHT22;1911;53.768;11.474;2023-02-07T05:22:11;-2.10;99.90
3792;DHT22;1911;53.768;11.474;2023-02-07T05:24:37;-2.10;99.90
3792;DHT22;1911;53.768;11.474;2023-02-07T05:27:03;-2.20;99.90
3792;DHT22;1911;53.768;11.474;2023-02-07T05:29:28;-2.30;99.90
3792;DHT22;1911;53.768;11.474;2023-02-07T05:31:54;-2.40;99.90
3792;DHT22;1911;53.768;11.474;2023-02-07T05:34:38;-2.50;99.90
3792;DHT22;1911;53.768;11.474;2023-02-07T05:37:04;-2.50;99.90
3792;DHT22;1911;53.768;11.474;2023-02-07T05:39:29;-2.60;99.90
3792;DHT22;1911;53.768;11.474;2023-02-07T05:41:55;-2.60;99.90
3792;DHT22;1911;53.768;11.474;2023-02-07T05:44:20;-2.60;99.90
3792;DHT22;1911;53.768;11.474;2023-02-07T05:46:46;-2.60;99.90
3792;DHT22;1911;53.768;11.474;2023-02-07T05:49:12;-2.70;99.90
3792;DHT22;1911;53.768;11.474;2023-02-07T05:51:37;-2.60;99.90
3792;DHT22;1911;53.768;11.474;2023-02-07T05:54:03;-2.70;99.90
3792;DHT22;1911;53.768;11.474;2023-02-07T05:56:29;-2.70;99.90
3792;DHT22;1911;53.768;11.474;2023-02-07T05:58:55;-2.70;99.90
3792;DHT22;1911;53.768;11.474;2023-02-07T06:01:20;-2.70;99.90
3792;DHT22;1911;53.768;11.474;2023-02-07T06:03:46;-2.70;99.90
3792;DHT22;1911;53.768;11.474;2023-02-07T06:06:12;-2.80;99.90
3792;DHT22;1911;53.768;11.474;2023-02-07T06:08:37;-2.80;99.90
3792;DHT22;1911;53.768;11.474;2023-02-07T06:11:03;-2.80;99.90
3792;DHT22;1911;53.768;11.474;2023-02-07T06:13:29;-2.80;99.90
3792;DHT22;1911;53.768;11.474;2023-02-07T06:15:54;-2.80;99.90
3792;DHT22;1911;53.768;11.474;2023-02-07T06:18:20;-2.80;99.90
3792;DHT22;1911;53.768;11.474;2023-02-07T06:20:45;-2.80;99.90
3792;DHT22;1911;53.768;11.474;2023-02-07T06:23:11;-2.80;99.90
3792;DHT22;1911;53.768;11.474;2023-02-07T06:25:37;-2.80;99.90
3792;DHT22;1911;53.768;11.474;2023-02-07T06:28:02;-2.80;99.90
3792;DHT22;1911;53.768;11.474;2023-02-07T06:30:28;-2.70;99.90
3792;DHT22;1911;53.768;11.474;2023-02-07T06:32:54;-2.80;99.90
3792;DHT22;1911;53.768;11.474;2023-02-07T06:35:19;-2.80;99.90
3792;DHT22;1911;53.768;11.474;2023-02-07T06:37:45;-2.80;99.90
3792;DHT22;1911;53.768;11.474;2023-02-07T06:40:11;-2.80;99.90
3792;DHT22;1911;53.768;11.474;2023-02-07T06:42:36;-2.80;99.90
3792;DHT22;1911;53.768;11.474;2023-02-07T06:45:02;-2.80;99.90
3792;DHT22;1911;53.768;11.474;2023-02-07T06:47:28;-2.90;99.90
3792;DHT22;1911;53.768;11.474;2023-02-07T06:49:53;-2.90;99.90
3792;DHT22;1911;53.768;11.474;2023-02-07T06:52:19;-2.90;99.90
3792;DHT22;1911;53.768;11.474;2023-02-07T06:54:45;-2.90;99.90
3792;DHT22;1911;53.768;11.474;2023-02-07T06:57:11;-2.90;99.90
3792;DHT22;1911;53.768;11.474;2023-02-07T06:59:36;-2.90;99.90
3792;DHT22;1911;53.768;11.474;2023-02-07T07:02:02;-2.90;99.90
3792;DHT22;1911;53.768;11.474;2023-02-07T07:04:28;-2.90;99.90
3792;DHT22;1911;53.768;11.474;2023-02-07T07:06:54;-2.80;99.90
3792;DHT22;1911;53.768;11.474;2023-02-07T07:09:20;-2.70;99.90
3792;DHT22;1911;53.768;11.474;2023-02-07T07:11:45;-2.70;99.90
3792;DHT22;1911;53.768;11.474;2023-02-07T07:14:12;-2.70;99.90
3792;DHT22;1911;53.768;11.474;2023-02-07T07:16:38;-2.60;99.90
3792;DHT22;1911;53.768;11.474;2023-02-07T07:19:05;-2.40;99.90
3792;DHT22;1911;53.768;11.474;2023-02-07T07:21:31;-2.40;99.90
3792;DHT22;1911;53.768;11.474;2023-02-07T07:23:56;-2.40;99.90
3792;DHT22;1911;53.768;11.474;2023-02-07T07:26:22;-2.40;99.90
3792;DHT22;1911;53.768;11.474;2023-02-07T07:28:50;-2.40;99.90
3792;DHT22;1911;53.768;11.474;2023-02-07T07:31:16;-2.20;99.90
3792;DHT22;1911;53.768;11.474;2023-02-07T07:33:43;-2.10;99.90
3792;DHT22;1911;53.768;11.474;2023-02-07T07:38:45;-2.00;99.90
3792;DHT22;1911;53.768;11.474;2023-02-07T07:41:11;-2.00;99.90
3792;DHT22;1911;53.768;11.474;2023-02-07T07:43:37;-2.00;99.90
3792;DHT22;1911;53.768;11.474;2023-02-07T07:46:03;-1.90;99.90
3792;DHT22;1911;53.768;11.474;2023-02-07T07:48:29;-1.90;99.90
3792;DHT22;1911;53.768;11.474;2023-02-07T07:50:55;-1.80;99.90
3792;DHT22;1911;53.768;11.474;2023-02-07T07:53:21;-1.80;99.90
3792;DHT22;1911;53.768;11.474;2023-02-07T07:55:52;-1.80;99.90
3792;DHT22;1911;53.768;11.474;2023-02-07T07:58:18;-1.70;99.90
3792;DHT22;1911;53.768;11.474;2023-02-07T08:00:44;-1.70;99.90
3792;DHT22;1911;53.768;11.474;2023-02-07T08:03:10;-1.60;99.90
3792;DHT22;1911;53.768;11.474;2023-02-07T08:05:37;-1.60;99.90
3792;DHT22;1911;53.768;11.474;2023-02-07T08:08:02;-1.70;99.90
3792;DHT22;1911;53.768;11.474;2023-02-07T08:10:28;-1.70;99.90
3792;DHT22;1911;53.768;11.474;2023-02-07T08:12:53;-1.70;99.90
3792;DHT22;1911;53.768;11.474;2023-02-07T08:15:19;-1.60;99.90
3792;DHT22;1911;53.768;11.474;2023-02-07T08:17:45;-1.60;99.90
3792;DHT22;1911;53.768;11.474;2023-02-07T08:20:10;-1.60;99.90
3792;DHT22;1911;53.768;11.474;2023-02-07T08:22:37;-1.50;99.90
3792;DHT22;1911;53.768;11.474;2023-02-07T08:25:03;-1.50;99.90
3792;DHT22;1911;53.768;11.474;2023-02-07T08:27:29;-1.50;99.90
3792;DHT22;1911;53.768;11.474;2023-02-07T08:29:55;-1.40;99.90
3792;DHT22;1911;53.768;11.474;2023-02-07T08:32:20;-1.50;99.90
3792;DHT22;1911;53.768;11.474;2023-02-07T08:34:46;-1.50;99.90
3792;DHT22;1911;53.768;11.474;2023-02-07T08:37:11;-1.40;99.90
3792;DHT22;1911;53.768;11.474;2023-02-07T08:39:37;-1.30;99.90
3792;DHT22;1911;53.768;11.474;2023-02-07T08:42:03;-1.30;99.90
3792;DHT22;1911;53.768;11.474;2023-02-07T08:44:33;-1.20;99.90
3792;DHT22;1911;53.768;11.474;2023-02-07T08:46:58;-1.10;99.90
3792;DHT22;1911;53.768;11.474;2023-02-07T08:49:24;-0.90;99.90
3792;DHT22;1911;53.768;11.474;2023-02-07T08:51:50;-0.70;99.90
3792;DHT22;1911;53.768;11.474;2023-02-07T08:54:17;-0.70;99.90
3792;DHT22;1911;53.768;11.474;2023-02-07T08:56:42;-0.70;99.90
3792;DHT22;1911;53.768;11.474;2023-02-07T08:59:08;-0.60;99.90
3792;DHT22;1911;53.768;11.474;2023-02-07T09:01:34;-0.60;99.90
3792;DHT22;1911;53.768;11.474;2023-02-07T09:03:59;-0.70;99.90
3792;DHT22;1911;53.768;11.474;2023-02-07T09:06:25;-0.70;99.90
3792;DHT22;1911;53.768;11.474;2023-02-07T09:08:51;-0.60;99.90
3792;DHT22;1911;53.768;11.474;2023-02-07T09:11:17;-0.60;99.90
3792;DHT22;1911;53.768;11.474;2023-02-07T09:13:43;-0.50;99.90
3792;DHT22;1911;53.768;11.474;2023-02-07T09:16:13;-0.30;99.90
3792;DHT22;1911;53.768;11.474;2023-02-07T09:18:39;-0.20;99.90
3792;DHT22;1911;53.768;11.474;2023-02-07T09:21:05;-0.20;99.90
3792;DHT22;1911;53.768;11.474;2023-02-07T09:23:31;-0.20;99.90
3792;DHT22;1911;53.768;11.474;2023-02-07T09:26:02;-0.10;99.90
3792;DHT22;1911;53.768;11.474;2023-02-07T09:28:28;-0.10;99.90
3792;DHT22;1911;53.768;11.474;2023-02-07T09:30:54;0.10;99.90
3792;DHT22;1911;53.768;11.474;2023-02-07T09:33:19;0.20;99.90
3792;DHT22;1911;53.768;11.474;2023-02-07T09:35:47;0.20;99.90
3792;DHT22;1911;53.768;11.474;2023-02-07T09:38:16;0.40;99.90
3792;DHT22;1911;53.768;11.474;2023-02-07T09:40:43;0.40;99.90
3792;DHT22;1911;53.768;11.474;2023-02-07T09:45:53;0.70;99.90
3792;DHT22;1911;53.768;11.474;2023-02-07T09:48:35;0.90;99.90
3792;DHT22;1911;53.768;11.474;2023-02-07T09:51:04;1.20;99.90
3792;DHT22;1911;53.768;11.474;2023-02-07T09:53:42;1.10;99.90
3792;DHT22;1911;53.768;11.474;2023-02-07T09:56:10;0.90;99.90
3792;DHT22;1911;53.768;11.474;2023-02-07T09:58:41;1.00;99.90
3792;DHT22;1911;53.768;11.474;2023-02-07T10:01:23;0.90;99.90
3792;DHT22;1911;53.768;11.474;2023-02-07T10:06:27;0.60;99.90
3792;DHT22;1911;53.768;11.474;2023-02-07T10:08:55;0.60;99.90
3792;DHT22;1911;53.768;11.474;2023-02-07T10:17:01;0.40;99.90
3792;DHT22;1911;53.768;11.474;2023-02-07T10:19:49;0.40;99.90
3792;DHT22;1911;53.768;11.474;2023-02-07T10:27:52;0.60;99.90
3792;DHT22;1911;53.768;11.474;2023-02-07T10:30:25;0.40;99.90
3792;DHT22;1911;53.768;11.474;2023-02-07T10:32:52;0.50;99.90
3792;DHT22;1911;53.768;11.474;2023-02-07T10:35:25;0.50;99.90
3792;DHT22;1911;53.768;11.474;2023-02-07T10:37:56;0.50;99.90
3792;DHT22;1911;53.768;11.474;2023-02-07T10:40:36;0.70;99.90
3792;DHT22;1911;53.768;11.474;2023-02-07T10:43:10;0.80;99.90
3792;DHT22;1911;53.768;11.474;2023-02-07T10:45:40;0.90;99.90
3792;DHT22;1911;53.768;11.474;2023-02-07T10:48:14;1.00;99.90
3792;DHT22;1911;53.768;11.474;2023-02-07T10:50:39;1.10;99.90
3792;DHT22;1911;53.768;11.474;2023-02-07T10:53:05;1.30;99.90
3792;DHT22;1911;53.768;11.474;2023-02-07T10:55:44;1.40;99.90
3792;DHT22;1911;53.768;11.474;2023-02-07T10:58:37;1.50;99.90
3792;DHT22;1911;53.768;11.474;2023-02-07T11:01:03;1.60;99.90
3792;DHT22;1911;53.768;11.474;2023-02-07T11:03:29;1.60;99.90
3792;DHT22;1911;53.768;11.474;2023-02-07T11:05:59;1.60;99.90
3792;DHT22;1911;53.768;11.474;2023-02-07T11:08:30;1.60;99.90
3792;DHT22;1911;53.768;11.474;2023-02-07T11:10:58;1.60;99.90
3792;DHT22;1911;53.768;11.474;2023-02-07T11:13:27;1.60;99.90
3792;DHT22;1911;53.768;11.474;2023-02-07T11:16:07;1.70;99.90
3792;DHT22;1911;53.768;11.474;2023-02-07T11:18:41;1.80;99.90
3792;DHT22;1911;53.768;11.474;2023-02-07T11:21:24;1.70;99.90
3792;DHT22;1911;53.768;11.474;2023-02-07T11:23:51;1.80;99.90
3792;DHT22;1911;53.768;11.474;2023-02-07T11:26:20;1.80;99.90
3792;DHT22;1911;53.768;11.474;2023-02-07T11:28:51;1.90;99.90
3792;DHT22;1911;53.768;11.474;2023-02-07T11:31:28;2.00;99.90
3792;DHT22;1911;53.768;11.474;2023-02-07T11:34:28;2.10;99.90
3792;DHT22;1911;53.768;11.474;2023-02-07T11:36:53;2.10;99.90
3792;DHT22;1911;53.768;11.474;2023-02-07T11:39:21;2.10;99.90
3792;DHT22;1911;53.768;11.474;2023-02-07T11:41:57;2.00;99.90
3792;DHT22;1911;53.768;11.474;2023-02-07T11:44:30;1.90;99.90
3792;DHT22;1911;53.768;11.474;2023-02-07T11:47:01;1.90;99.90
3792;DHT22;1911;53.768;11.474;2023-02-07T11:52:03;1.90;99.90
3792;DHT22;1911;53.768;11.474;2023-02-07T11:54:30;1.90;99.90
3792;DHT22;1911;53.768;11.474;2023-02-07T11:57:05;1.70;99.90
3792;DHT22;1911;53.768;11.474;2023-02-07T11:59:33;1.70;99.90
3792;DHT22;1911;53.768;11.474;2023-02-07T12:02:12;1.70;99.90
3792;DHT22;1911;53.768;11.474;2023-02-07T12:04:40;1.70;99.90
3792;DHT22;1911;53.768;11.474;2023-02-07T12:10:32;1.70;99.90
3792;DHT22;1911;53.768;11.474;2023-02-07T12:13:21;1.80;99.90
3792;DHT22;1911;53.768;11.474;2023-02-07T12:16:09;1.80;99.90
3792;DHT22;1911;53.768;11.474;2023-02-07T12:18:47;1.80;99.90
3792;DHT22;1911;53.768;11.474;2023-02-07T12:21:56;1.80;99.90
3792;DHT22;1911;53.768;11.474;2023-02-07T12:24:39;1.80;99.90
3792;DHT22;1911;53.768;11.474;2023-02-07T12:27:14;1.90;99.90
3792;DHT22;1911;53.768;11.474;2023-02-07T12:33:32;1.70;99.90
3792;DHT22;1911;53.768;11.474;2023-02-07T12:44:58;1.80;99.90
3792;DHT22;1911;53.768;11.474;2023-02-07T12:47:46;1.90;99.90
3792;DHT22;1911;53.768;11.474;2023-02-07T12:50:31;1.90;99.90
3792;DHT22;1911;53.768;11.474;2023-02-07T12:59:05;2.20;99.90
3792;DHT22;1911;53.768;11.474;2023-02-07T13:01:45;2.20;99.90
3792;DHT22;1911;53.768;11.474;2023-02-07T13:15:14;2.10;99.90
3792;DHT22;1911;53.768;11.474;2023-02-07T13:23:03;2.20;99.90
3792;DHT22;1911;53.768;11.474;2023-02-07T13:25:33;2.30;99.90
3792;DHT22;1911;53.768;11.474;2023-02-07T13:28:07;2.40;99.90
3792;DHT22;1911;53.768;11.474;2023-02-07T13:30:37;2.50;99.90
3792;DHT22;1911;53.768;11.474;2023-02-07T13:33:55;2.50;99.90
3792;DHT22;1911;53.768;11.474;2023-02-07T13:36:17;2.50;99.90
3792;DHT22;1911;53.768;11.474;2023-02-07T13:55:05;2.70;99.90
3792;DHT22;1911;53.768;11.474;2023-02-07T14:40:15;2.40;99.90
3792;DHT22;1911;53.768;11.474;2023-02-07T15:49:28;1.50;99.90
3792;DHT22;1911;53.768;11.474;2023-02-07T15:52:48;1.50;1.00
3792;DHT22;1911;53.768;11.474;2023-02-07T15:58:34;1.20;99.90
3792;DHT22;1911;53.768;11.474;2023-02-07T16:01:01;1.20;99.90
3792;DHT22;1911;53.768;11.474;2023-02-07T16:03:30;1.10;99.90
3792;DHT22;1911;53.768;11.474;2023-02-07T16:06:10;1.00;99.90
3792;DHT22;1911;53.768;11.474;2023-02-07T16:08:39;0.90;1.00
3792;DHT22;1911;53.768;11.474;2023-02-07T16:11:36;0.90;97.50
3792;DHT22;1911;53.768;11.474;2023-02-07T16:14:28;0.80;1.00
3792;DHT22;1911;53.768;11.474;2023-02-07T16:24:44;0.60;99.90
3792;DHT22;1911;53.768;11.474;2023-02-07T16:34:39;0.30;1.00
3792;DHT22;1911;53.768;11.474;2023-02-07T16:44:40;0.10;83.30
3792;DHT22;1911;53.768;11.474;2023-02-07T16:47:30;0.10;99.90
3792;DHT22;1911;53.768;11.474;2023-02-07T17:11:04;0.00;99.90
3792;DHT22;1911;53.768;11.474;2023-02-07T17:14:11;-0.10;99.90
3792;DHT22;1911;53.768;11.474;2023-02-07T17:31:16;-0.20;1.00
3792;DHT22;1911;53.768;11.474;2023-02-07T17:34:06;-0.30;1.00
3792;DHT22;1911;53.768;11.474;2023-02-07T17:53:35;-0.60;99.90
3792;DHT22;1911;53.768;11.474;2023-02-07T17:56:06;-0.70;99.90
3792;DHT22;1911;53.768;11.474;2023-02-07T17:58:56;-0.70;99.90
3792;DHT22;1911;53.768;11.474;2023-02-07T18:02:09;-0.80;99.90
3792;DHT22;1911;53.768;11.474;2023-02-07T18:05:15;-0.80;99.90
3792;DHT22;1911;53.768;11.474;2023-02-07T18:07:52;-0.80;99.90
3792;DHT22;1911;53.768;11.474;2023-02-07T18:11:01;-0.80;99.90
3792;DHT22;1911;53.768;11.474;2023-02-07T18:13:51;-0.80;99.90
3792;DHT22;1911;53.768;11.474;2023-02-07T18:36:50;-1.20;99.90
3792;DHT22;1911;53.768;11.474;2023-02-07T18:39:47;-1.30;99.90
3792;DHT22;1911;53.768;11.474;2023-02-07T18:42:44;-1.30;99.90
3792;DHT22;1911;53.768;11.474;2023-02-07T18:45:47;-1.30;99.90
3792;DHT22;1911;53.768;11.474;2023-02-07T18:51:53;-1.20;99.90
3792;DHT22;1911;53.768;11.474;2023-02-07T18:54:29;-1.20;99.90
3792;DHT22;1911;53.768;11.474;2023-02-07T18:57:17;-1.30;99.90
3792;DHT22;1911;53.768;11.474;2023-02-07T19:00:24;-1.30;99.90
3792;DHT22;1911;53.768;11.474;2023-02-07T19:09:52;-1.30;99.90
3792;DHT22;1911;53.768;11.474;2023-02-07T19:13:01;-1.30;99.90
3792;DHT22;1911;53.768;11.474;2023-02-07T19:15:45;-1.30;99.90
3792;DHT22;1911;53.768;11.474;2023-02-07T19:18:55;-1.30;99.90
3792;DHT22;1911;53.768;11.474;2023-02-07T19:21:53;-1.30;99.90
3792;DHT22;1911;53.768;11.474;2023-02-07T19:24:29;-1.30;99.90
3792;DHT22;1911;53.768;11.474;2023-02-07T19:27:10;-1.30;99.90
3792;DHT22;1911;53.768;11.474;2023-02-07T19:30:16;-1.30;99.90
3792;DHT22;1911;53.768;11.474;2023-02-07T19:33:12;-1.30;99.90
3792;DHT22;1911;53.768;11.474;2023-02-07T21:12:01;-1.30;99.90
3792;DHT22;1911;53.768;11.474;2023-02-07T22:38:43;-1.20;99.90
